EBCI/CRL METAR and TAF weather

Enter ICAO airport designator
Station Type Date Time Source
EBCI METAR 2020/05/29 20:20 UTC NOAA

EBCI 292020Z AUTO 05007KT CAVOK 17/04 Q1023


Station Type Date Time Source
EBCI Decoded METAR 2020/05/29 20:20 UTC NOAA

Charleroi / Gosselies, Belgium (EBCI) 50-28N 004-27E 192M
May 29, 2020 - 04:20 PM EDT / 2020.05.29 2020 UTC
Wind: from the NE (050 degrees) at 8 MPH (7 KT):0
Visibility: greater than 7 mile(s):0
Temperature: 62 F (17 C)
Dew Point: 39 F (4 C)
Relative Humidity: 41%
Pressure (altimeter): 30.21 in. Hg (1023 hPa)
ob: EBCI 292020Z AUTO 05007KT CAVOK 17/04 Q1023
cycle: 20

Station Type Date Time Source
EBCI TAF 2020/05/29 18:27 UTC NOAA

TAF EBCI 291710Z 2918/3024 06008KT CAVOK

Example: see airport list